sensor_id;sensor_type;location;lat;lon;timestamp;pressure;altitude;pressure_sealevel;temperature;humidity
77526;BME280;66627;29.424;-98.496;2024-01-07T00:01:47;98812.41;;;18.75;19.15
77526;BME280;66627;29.424;-98.496;2024-01-07T00:04:09;98816.92;;;18.65;19.23
77526;BME280;66627;29.424;-98.496;2024-01-07T00:06:34;98827.03;;;18.88;19.26
77526;BME280;66627;29.424;-98.496;2024-01-07T00:09:00;98831.88;;;18.05;20.53
77526;BME280;66627;29.424;-98.496;2024-01-07T00:11:26;98839.91;;;17.56;19.84
77526;BME280;66627;29.424;-98.496;2024-01-07T00:13:49;98843.54;;;17.46;20.54
77526;BME280;66627;29.424;-98.496;2024-01-07T00:16:15;98851.43;;;18.18;20.14
77526;BME280;66627;29.424;-98.496;2024-01-07T00:18:40;98861.40;;;18.33;19.65
77526;BME280;66627;29.424;-98.496;2024-01-07T00:21:05;98870.82;;;18.36;19.82
77526;BME280;66627;29.424;-98.496;2024-01-07T00:23:31;98876.66;;;17.91;20.17
77526;BME280;66627;29.424;-98.496;2024-01-07T00:25:57;98880.78;;;17.88;20.16
77526;BME280;66627;29.424;-98.496;2024-01-07T00:28:21;98886.34;;;17.64;20.59
77526;BME280;66627;29.424;-98.496;2024-01-07T00:30:47;98889.57;;;16.78;21.54
77526;BME280;66627;29.424;-98.496;2024-01-07T00:33:12;98894.52;;;16.74;21.84
77526;BME280;66627;29.424;-98.496;2024-01-07T00:35:37;98898.68;;;17.07;22.09
77526;BME280;66627;29.424;-98.496;2024-01-07T00:38:01;98899.54;;;17.00;22.12
77526;BME280;66627;29.424;-98.496;2024-01-07T00:40:27;98902.03;;;16.62;22.43
77526;BME280;66627;29.424;-98.496;2024-01-07T00:42:52;98902.23;;;16.39;23.02
77526;BME280;66627;29.424;-98.496;2024-01-07T00:45:18;98911.99;;;15.83;23.53
77526;BME280;66627;29.424;-98.496;2024-01-07T00:47:42;98913.04;;;16.15;23.69
77526;BME280;66627;29.424;-98.496;2024-01-07T00:50:08;98911.66;;;16.41;23.72
77526;BME280;66627;29.424;-98.496;2024-01-07T00:52:33;98914.59;;;15.97;23.94
77526;BME280;66627;29.424;-98.496;2024-01-07T00:54:59;98920.16;;;15.88;24.74
77526;BME280;66627;29.424;-98.496;2024-01-07T00:57:24;98930.06;;;15.57;24.98
77526;BME280;66627;29.424;-98.496;2024-01-07T00:59:50;98935.05;;;15.44;25.16
77526;BME280;66627;29.424;-98.496;2024-01-07T01:02:16;98940.82;;;15.69;25.07
77526;BME280;66627;29.424;-98.496;2024-01-07T01:04:42;98945.11;;;16.12;25.43
77526;BME280;66627;29.424;-98.496;2024-01-07T01:07:07;98950.59;;;15.94;25.56
77526;BME280;66627;29.424;-98.496;2024-01-07T01:09:31;98954.77;;;16.16;24.99
77526;BME280;66627;29.424;-98.496;2024-01-07T01:11:57;98955.30;;;15.72;25.44
77526;BME280;66627;29.424;-98.496;2024-01-07T01:14:23;98957.96;;;16.05;25.20
77526;BME280;66627;29.424;-98.496;2024-01-07T01:16:48;98964.41;;;15.15;25.99
77526;BME280;66627;29.424;-98.496;2024-01-07T01:19:13;98967.20;;;15.61;25.54
77526;BME280;66627;29.424;-98.496;2024-01-07T01:21:39;98974.20;;;14.50;25.97
77526;BME280;66627;29.424;-98.496;2024-01-07T01:24:05;98980.87;;;15.35;26.30
77526;BME280;66627;29.424;-98.496;2024-01-07T01:26:30;98981.63;;;15.78;25.55
77526;BME280;66627;29.424;-98.496;2024-01-07T01:28:56;98986.06;;;15.65;26.23
77526;BME280;66627;29.424;-98.496;2024-01-07T01:31:21;98990.63;;;15.74;25.82
77526;BME280;66627;29.424;-98.496;2024-01-07T01:33:45;98990.75;;;15.74;26.24
77526;BME280;66627;29.424;-98.496;2024-01-07T01:36:10;98996.11;;;15.34;26.91
77526;BME280;66627;29.424;-98.496;2024-01-07T01:38:35;98995.99;;;15.14;25.48
77526;BME280;66627;29.424;-98.496;2024-01-07T01:41:00;99004.96;;;14.07;25.10
77526;BME280;66627;29.424;-98.496;2024-01-07T01:43:27;99001.28;;;14.57;25.16
77526;BME280;66627;29.424;-98.496;2024-01-07T01:45:52;99005.04;;;14.77;24.85
77526;BME280;66627;29.424;-98.496;2024-01-07T01:48:16;99012.46;;;14.52;25.12
77526;BME280;66627;29.424;-98.496;2024-01-07T01:50:43;99014.66;;;14.17;24.85
77526;BME280;66627;29.424;-98.496;2024-01-07T01:53:07;99021.32;;;14.58;24.81
77526;BME280;66627;29.424;-98.496;2024-01-07T01:55:33;99028.71;;;14.87;24.78
77526;BME280;66627;29.424;-98.496;2024-01-07T01:57:59;99024.48;;;15.28;25.73
77526;BME280;66627;29.424;-98.496;2024-01-07T02:00:23;99025.49;;;15.30;25.22
77526;BME280;66627;29.424;-98.496;2024-01-07T02:02:48;99028.01;;;14.97;26.22
77526;BME280;66627;29.424;-98.496;2024-01-07T02:05:14;99040.63;;;14.35;24.65
77526;BME280;66627;29.424;-98.496;2024-01-07T02:07:39;99048.80;;;14.21;25.00
77526;BME280;66627;29.424;-98.496;2024-01-07T02:10:05;99046.32;;;13.68;25.25
77526;BME280;66627;29.424;-98.496;2024-01-07T02:12:29;99049.17;;;14.01;25.24
77526;BME280;66627;29.424;-98.496;2024-01-07T02:14:54;99055.24;;;14.57;25.24
77526;BME280;66627;29.424;-98.496;2024-01-07T02:17:22;99064.88;;;14.55;25.44
77526;BME280;66627;29.424;-98.496;2024-01-07T02:19:47;99068.00;;;14.54;25.06
77526;BME280;66627;29.424;-98.496;2024-01-07T02:22:12;99065.37;;;14.06;24.72
77526;BME280;66627;29.424;-98.496;2024-01-07T02:24:37;99065.03;;;14.41;25.01
77526;BME280;66627;29.424;-98.496;2024-01-07T02:27:01;99078.44;;;13.92;25.26
77526;BME280;66627;29.424;-98.496;2024-01-07T02:29:26;99084.82;;;12.92;26.06
77526;BME280;66627;29.424;-98.496;2024-01-07T02:31:53;99087.81;;;12.97;26.32
77526;BME280;66627;29.424;-98.496;2024-01-07T02:34:18;99085.46;;;12.80;26.45
77526;BME280;66627;29.424;-98.496;2024-01-07T02:36:44;99094.54;;;13.61;26.10
77526;BME280;66627;29.424;-98.496;2024-01-07T02:39:08;99105.11;;;12.81;26.50
77526;BME280;66627;29.424;-98.496;2024-01-07T02:41:34;99111.14;;;13.06;26.43
77526;BME280;66627;29.424;-98.496;2024-01-07T02:44:00;99118.68;;;13.24;26.53
77526;BME280;66627;29.424;-98.496;2024-01-07T02:46:25;99125.13;;;13.25;26.43
77526;BME280;66627;29.424;-98.496;2024-01-07T02:48:51;99135.16;;;13.83;26.66
77526;BME280;66627;29.424;-98.496;2024-01-07T02:51:15;99131.93;;;14.63;26.64
77526;BME280;66627;29.424;-98.496;2024-01-07T02:53:41;99132.20;;;15.23;25.20
77526;BME280;66627;29.424;-98.496;2024-01-07T02:56:06;99141.29;;;15.20;25.63
77526;BME280;66627;29.424;-98.496;2024-01-07T02:58:31;99144.55;;;14.61;26.75
77526;BME280;66627;29.424;-98.496;2024-01-07T03:01:02;99149.92;;;14.40;26.88
77526;BME280;66627;29.424;-98.496;2024-01-07T03:03:21;99148.55;;;14.08;28.11
77526;BME280;66627;29.424;-98.496;2024-01-07T03:05:47;99151.07;;;14.09;30.05
77526;BME280;66627;29.424;-98.496;2024-01-07T03:08:13;99151.35;;;14.50;29.20
77526;BME280;66627;29.424;-98.496;2024-01-07T03:10:38;99154.10;;;13.21;31.22
77526;BME280;66627;29.424;-98.496;2024-01-07T03:13:04;99156.11;;;13.73;31.41
77526;BME280;66627;29.424;-98.496;2024-01-07T03:15:28;99168.85;;;13.28;32.25
77526;BME280;66627;29.424;-98.496;2024-01-07T03:17:53;99175.10;;;13.02;32.13
77526;BME280;66627;29.424;-98.496;2024-01-07T03:20:19;99185.62;;;13.42;31.68
77526;BME280;66627;29.424;-98.496;2024-01-07T03:22:44;99194.23;;;13.30;31.73
77526;BME280;66627;29.424;-98.496;2024-01-07T03:25:09;99194.25;;;13.22;32.46
77526;BME280;66627;29.424;-98.496;2024-01-07T03:27:36;99198.72;;;13.21;32.90
77526;BME280;66627;29.424;-98.496;2024-01-07T03:30:01;99201.39;;;12.83;34.49
77526;BME280;66627;29.424;-98.496;2024-01-07T03:32:26;99211.50;;;13.27;33.39
77526;BME280;66627;29.424;-98.496;2024-01-07T03:34:51;99214.54;;;12.67;34.14
77526;BME280;66627;29.424;-98.496;2024-01-07T03:37:17;99218.46;;;13.07;33.86
77526;BME280;66627;29.424;-98.496;2024-01-07T03:39:42;99224.77;;;13.67;33.37
77526;BME280;66627;29.424;-98.496;2024-01-07T03:42:07;99226.55;;;12.77;34.43
77526;BME280;66627;29.424;-98.496;2024-01-07T03:44:34;99230.48;;;13.52;33.28
77526;BME280;66627;29.424;-98.496;2024-01-07T03:46:58;99230.11;;;13.46;33.99
77526;BME280;66627;29.424;-98.496;2024-01-07T03:49:24;99228.24;;;13.86;33.38
77526;BME280;66627;29.424;-98.496;2024-01-07T03:51:49;99231.83;;;14.28;33.37
77526;BME280;66627;29.424;-98.496;2024-01-07T03:54:15;99242.93;;;14.46;33.07
77526;BME280;66627;29.424;-98.496;2024-01-07T03:56:38;99253.27;;;12.54;35.09
77526;BME280;66627;29.424;-98.496;2024-01-07T03:59:04;99255.94;;;14.07;33.46
77526;BME280;66627;29.424;-98.496;2024-01-07T04:01:31;99250.33;;;13.54;34.59
77526;BME280;66627;29.424;-98.496;2024-01-07T04:03:55;99250.20;;;13.76;34.37
77526;BME280;66627;29.424;-98.496;2024-01-07T04:06:21;99251.60;;;13.89;33.69
77526;BME280;66627;29.424;-98.496;2024-01-07T04:08:47;99244.30;;;13.31;34.35
77526;BME280;66627;29.424;-98.496;2024-01-07T04:11:11;99242.87;;;13.79;34.26
77526;BME280;66627;29.424;-98.496;2024-01-07T04:13:37;99243.83;;;13.20;35.10
77526;BME280;66627;29.424;-98.496;2024-01-07T04:16:02;99249.86;;;13.21;36.01
77526;BME280;66627;29.424;-98.496;2024-01-07T04:18:27;99258.05;;;12.98;35.93
77526;BME280;66627;29.424;-98.496;2024-01-07T04:20:52;99263.69;;;13.64;35.72
77526;BME280;66627;29.424;-98.496;2024-01-07T04:23:18;99259.90;;;13.64;35.84
77526;BME280;66627;29.424;-98.496;2024-01-07T04:25:43;99267.51;;;12.98;36.60
77526;BME280;66627;29.424;-98.496;2024-01-07T04:28:09;99265.62;;;13.33;36.49
77526;BME280;66627;29.424;-98.496;2024-01-07T04:30:35;99261.55;;;13.55;36.92
77526;BME280;66627;29.424;-98.496;2024-01-07T04:32:59;99264.17;;;12.91;37.80
77526;BME280;66627;29.424;-98.496;2024-01-07T04:35:25;99268.60;;;13.23;37.80
77526;BME280;66627;29.424;-98.496;2024-01-07T04:37:50;99270.70;;;12.92;38.56
77526;BME280;66627;29.424;-98.496;2024-01-07T04:40:15;99270.76;;;13.54;37.65
77526;BME280;66627;29.424;-98.496;2024-01-07T04:42:41;99274.04;;;13.12;38.54
77526;BME280;66627;29.424;-98.496;2024-01-07T04:45:07;99273.76;;;13.03;37.99
77526;BME280;66627;29.424;-98.496;2024-01-07T04:47:32;99270.46;;;12.72;38.45
77526;BME280;66627;29.424;-98.496;2024-01-07T04:49:58;99268.08;;;12.75;38.01
77526;BME280;66627;29.424;-98.496;2024-01-07T04:52:23;99269.72;;;13.19;39.24
77526;BME280;66627;29.424;-98.496;2024-01-07T04:54:48;99267.40;;;13.15;39.11
77526;BME280;66627;29.424;-98.496;2024-01-07T04:57:12;99272.55;;;12.34;40.16
77526;BME280;66627;29.424;-98.496;2024-01-07T04:59:39;99274.94;;;12.61;39.70
77526;BME280;66627;29.424;-98.496;2024-01-07T05:02:03;99280.05;;;13.13;39.33
77526;BME280;66627;29.424;-98.496;2024-01-07T05:04:29;99284.49;;;13.04;39.67
77526;BME280;66627;29.424;-98.496;2024-01-07T05:06:54;99287.36;;;13.06;39.20
77526;BME280;66627;29.424;-98.496;2024-01-07T05:09:19;99296.94;;;11.56;40.91
77526;BME280;66627;29.424;-98.496;2024-01-07T05:11:46;99298.88;;;11.24;42.20
77526;BME280;66627;29.424;-98.496;2024-01-07T05:14:12;99311.30;;;11.81;40.66
77526;BME280;66627;29.424;-98.496;2024-01-07T05:16:35;99314.91;;;11.93;40.73
77526;BME280;66627;29.424;-98.496;2024-01-07T05:19:01;99315.72;;;11.64;40.31
77526;BME280;66627;29.424;-98.496;2024-01-07T05:21:25;99319.62;;;10.24;43.15
77526;BME280;66627;29.424;-98.496;2024-01-07T05:23:51;99324.79;;;10.78;42.65
77526;BME280;66627;29.424;-98.496;2024-01-07T05:26:18;99323.29;;;10.17;44.48
77526;BME280;66627;29.424;-98.496;2024-01-07T05:28:41;99321.05;;;10.46;44.49
77526;BME280;66627;29.424;-98.496;2024-01-07T05:31:14;99316.43;;;10.01;44.87
77526;BME280;66627;29.424;-98.496;2024-01-07T05:33:32;99316.14;;;11.11;42.84
77526;BME280;66627;29.424;-98.496;2024-01-07T05:35:58;99319.18;;;10.85;43.57
77526;BME280;66627;29.424;-98.496;2024-01-07T05:38:23;99317.43;;;10.69;43.84
77526;BME280;66627;29.424;-98.496;2024-01-07T05:40:49;99316.97;;;10.40;44.54
77526;BME280;66627;29.424;-98.496;2024-01-07T05:43:15;99323.97;;;9.98;44.88
77526;BME280;66627;29.424;-98.496;2024-01-07T05:45:39;99326.94;;;8.92;47.27
77526;BME280;66627;29.424;-98.496;2024-01-07T05:48:06;99324.95;;;8.71;48.43
77526;BME280;66627;29.424;-98.496;2024-01-07T05:50:32;99323.81;;;9.66;46.53
77526;BME280;66627;29.424;-98.496;2024-01-07T05:52:55;99331.79;;;10.70;45.13
77526;BME280;66627;29.424;-98.496;2024-01-07T05:55:21;99333.55;;;10.32;44.53
77526;BME280;66627;29.424;-98.496;2024-01-07T05:57:47;99334.77;;;9.46;47.18
77526;BME280;66627;29.424;-98.496;2024-01-07T06:00:12;99343.78;;;8.76;48.14
77526;BME280;66627;29.424;-98.496;2024-01-07T06:02:38;99345.56;;;9.07;47.82
77526;BME280;66627;29.424;-98.496;2024-01-07T06:05:02;99348.64;;;9.74;46.31
77526;BME280;66627;29.424;-98.496;2024-01-07T06:07:27;99353.76;;;9.71;46.80
77526;BME280;66627;29.424;-98.496;2024-01-07T06:09:52;99356.52;;;10.52;45.01
77526;BME280;66627;29.424;-98.496;2024-01-07T06:12:17;99357.63;;;9.06;47.25
77526;BME280;66627;29.424;-98.496;2024-01-07T06:14:43;99354.06;;;8.63;48.89
77526;BME280;66627;29.424;-98.496;2024-01-07T06:17:08;99340.80;;;7.91;50.75
77526;BME280;66627;29.424;-98.496;2024-01-07T06:19:33;99345.07;;;9.46;47.32
77526;BME280;66627;29.424;-98.496;2024-01-07T06:21:59;99344.16;;;10.13;45.50
77526;BME280;66627;29.424;-98.496;2024-01-07T06:24:24;99347.89;;;9.76;45.71
77526;BME280;66627;29.424;-98.496;2024-01-07T06:26:50;99352.92;;;8.55;48.65
77526;BME280;66627;29.424;-98.496;2024-01-07T06:29:16;99348.57;;;7.97;50.09
77526;BME280;66627;29.424;-98.496;2024-01-07T06:31:44;99344.82;;;7.93;49.74
77526;BME280;66627;29.424;-98.496;2024-01-07T06:34:07;99347.41;;;8.68;48.63
77526;BME280;66627;29.424;-98.496;2024-01-07T06:36:32;99354.49;;;9.16;48.10
77526;BME280;66627;29.424;-98.496;2024-01-07T06:38:57;99360.50;;;8.54;49.33
77526;BME280;66627;29.424;-98.496;2024-01-07T06:41:24;99355.33;;;9.64;45.82
77526;BME280;66627;29.424;-98.496;2024-01-07T06:43:49;99348.19;;;9.76;45.76
77526;BME280;66627;29.424;-98.496;2024-01-07T06:46:14;99340.55;;;8.53;48.71
77526;BME280;66627;29.424;-98.496;2024-01-07T06:48:40;99330.04;;;7.98;50.52
77526;BME280;66627;29.424;-98.496;2024-01-07T06:51:07;99324.79;;;9.30;48.12
77526;BME280;66627;29.424;-98.496;2024-01-07T06:53:30;99323.54;;;8.91;48.72
77526;BME280;66627;29.424;-98.496;2024-01-07T06:55:56;99330.06;;;8.91;49.28
77526;BME280;66627;29.424;-98.496;2024-01-07T06:58:21;99339.11;;;9.67;47.99
77526;BME280;66627;29.424;-98.496;2024-01-07T07:00:46;99346.77;;;9.56;47.36
77526;BME280;66627;29.424;-98.496;2024-01-07T07:03:13;99351.86;;;9.25;47.62
77526;BME280;66627;29.424;-98.496;2024-01-07T07:05:38;99359.82;;;9.65;47.41
77526;BME280;66627;29.424;-98.496;2024-01-07T07:08:03;99373.22;;;10.23;46.20
77526;BME280;66627;29.424;-98.496;2024-01-07T07:10:29;99377.32;;;9.58;47.38
77526;BME280;66627;29.424;-98.496;2024-01-07T07:12:54;99379.73;;;9.79;46.76
77526;BME280;66627;29.424;-98.496;2024-01-07T07:15:20;99381.10;;;9.00;46.77
77526;BME280;66627;29.424;-98.496;2024-01-07T07:17:45;99384.94;;;9.63;45.28
77526;BME280;66627;29.424;-98.496;2024-01-07T07:20:10;99388.59;;;9.24;46.15
77526;BME280;66627;29.424;-98.496;2024-01-07T07:22:36;99398.00;;;9.03;47.47
77526;BME280;66627;29.424;-98.496;2024-01-07T07:24:59;99396.68;;;7.98;50.89
77526;BME280;66627;29.424;-98.496;2024-01-07T07:27:25;99387.43;;;8.13;49.25
77526;BME280;66627;29.424;-98.496;2024-01-07T07:29:50;99392.41;;;7.79;50.64
77526;BME280;66627;29.424;-98.496;2024-01-07T07:32:15;99395.70;;;8.07;50.86
77526;BME280;66627;29.424;-98.496;2024-01-07T07:34:42;99401.08;;;7.52;52.45
77526;BME280;66627;29.424;-98.496;2024-01-07T07:37:07;99402.50;;;9.02;48.69
77526;BME280;66627;29.424;-98.496;2024-01-07T07:39:33;99404.96;;;9.67;47.57
77526;BME280;66627;29.424;-98.496;2024-01-07T07:41:58;99402.70;;;9.33;48.04
77526;BME280;66627;29.424;-98.496;2024-01-07T07:44:24;99399.64;;;9.10;47.54
77526;BME280;66627;29.424;-98.496;2024-01-07T07:46:49;99400.84;;;8.39;48.87
77526;BME280;66627;29.424;-98.496;2024-01-07T07:49:14;99400.16;;;8.71;47.95
77526;BME280;66627;29.424;-98.496;2024-01-07T07:51:39;99396.70;;;7.65;50.30
77526;BME280;66627;29.424;-98.496;2024-01-07T07:54:06;99397.33;;;8.00;50.04
77526;BME280;66627;29.424;-98.496;2024-01-07T07:56:30;99388.20;;;8.48;49.63
77526;BME280;66627;29.424;-98.496;2024-01-07T07:58:56;99380.41;;;8.10;49.92
77526;BME280;66627;29.424;-98.496;2024-01-07T08:01:22;99378.23;;;7.73;50.38
77526;BME280;66627;29.424;-98.496;2024-01-07T08:03:47;99372.41;;;8.55;49.31
77526;BME280;66627;29.424;-98.496;2024-01-07T08:06:13;99377.28;;;9.01;49.09
77526;BME280;66627;29.424;-98.496;2024-01-07T08:08:38;99375.75;;;9.41;46.90
77526;BME280;66627;29.424;-98.496;2024-01-07T08:11:03;99377.31;;;8.76;48.21
77526;BME280;66627;29.424;-98.496;2024-01-07T08:13:30;99378.89;;;8.98;48.47
77526;BME280;66627;29.424;-98.496;2024-01-07T08:15:54;99376.36;;;8.69;48.19
77526;BME280;66627;29.424;-98.496;2024-01-07T08:18:20;99374.51;;;8.58;48.71
77526;BME280;66627;29.424;-98.496;2024-01-07T08:20:45;99374.52;;;7.97;50.02
77526;BME280;66627;29.424;-98.496;2024-01-07T08:23:12;99365.50;;;8.58;49.05
77526;BME280;66627;29.424;-98.496;2024-01-07T08:25:37;99360.12;;;7.72;49.20
77526;BME280;66627;29.424;-98.496;2024-01-07T08:28:03;99357.55;;;7.76;50.14
77526;BME280;66627;29.424;-98.496;2024-01-07T08:30:27;99360.50;;;6.99;52.14
77526;BME280;66627;29.424;-98.496;2024-01-07T08:32:53;99355.86;;;7.10;52.23
77526;BME280;66627;29.424;-98.496;2024-01-07T08:35:18;99345.37;;;8.12;50.04
77526;BME280;66627;29.424;-98.496;2024-01-07T08:37:44;99342.29;;;7.25;52.83
77526;BME280;66627;29.424;-98.496;2024-01-07T08:40:09;99336.09;;;8.27;50.43
77526;BME280;66627;29.424;-98.496;2024-01-07T08:42:36;99333.39;;;8.59;49.49
77526;BME280;66627;29.424;-98.496;2024-01-07T08:45:01;99337.41;;;7.83;51.66
77526;BME280;66627;29.424;-98.496;2024-01-07T08:47:25;99342.11;;;6.46;54.10
77526;BME280;66627;29.424;-98.496;2024-01-07T08:49:51;99346.05;;;7.42;52.71
77526;BME280;66627;29.424;-98.496;2024-01-07T08:52:17;99349.63;;;6.97;52.57
77526;BME280;66627;29.424;-98.496;2024-01-07T08:54:42;99361.45;;;6.16;55.03
77526;BME280;66627;29.424;-98.496;2024-01-07T08:57:08;99362.42;;;6.49;54.65
77526;BME280;66627;29.424;-98.496;2024-01-07T08:59:33;99364.87;;;6.89;53.05
77526;BME280;66627;29.424;-98.496;2024-01-07T09:01:58;99361.95;;;8.19;50.10
77526;BME280;66627;29.424;-98.496;2024-01-07T09:04:23;99359.72;;;7.95;51.07
77526;BME280;66627;29.424;-98.496;2024-01-07T09:06:49;99355.28;;;8.18;49.46
77526;BME280;66627;29.424;-98.496;2024-01-07T09:09:16;99347.99;;;8.56;48.85
77526;BME280;66627;29.424;-98.496;2024-01-07T09:11:41;99350.58;;;7.56;50.15
77526;BME280;66627;29.424;-98.496;2024-01-07T09:14:06;99356.92;;;6.91;53.26
77526;BME280;66627;29.424;-98.496;2024-01-07T09:16:31;99357.13;;;6.93;52.98
77526;BME280;66627;29.424;-98.496;2024-01-07T09:18:55;99362.38;;;7.29;51.76
77526;BME280;66627;29.424;-98.496;2024-01-07T09:21:21;99361.94;;;8.06;49.73
77526;BME280;66627;29.424;-98.496;2024-01-07T09:23:47;99366.83;;;7.80;49.61
77526;BME280;66627;29.424;-98.496;2024-01-07T09:26:11;99366.08;;;6.77;52.79
77526;BME280;66627;29.424;-98.496;2024-01-07T09:28:36;99367.58;;;7.41;52.70
77526;BME280;66627;29.424;-98.496;2024-01-07T09:31:02;99366.70;;;6.49;54.65
77526;BME280;66627;29.424;-98.496;2024-01-07T09:33:27;99366.44;;;5.91;56.23
77526;BME280;66627;29.424;-98.496;2024-01-07T09:35:52;99367.86;;;6.73;54.11
77526;BME280;66627;29.424;-98.496;2024-01-07T09:38:18;99368.16;;;6.37;54.66
77526;BME280;66627;29.424;-98.496;2024-01-07T09:40:45;99370.41;;;7.37;52.31
77526;BME280;66627;29.424;-98.496;2024-01-07T09:43:09;99370.60;;;7.72;50.04
77526;BME280;66627;29.424;-98.496;2024-01-07T09:45:37;99373.16;;;6.71;53.31
77526;BME280;66627;29.424;-98.496;2024-01-07T09:47:59;99373.96;;;5.92;55.61
77526;BME280;66627;29.424;-98.496;2024-01-07T09:50:26;99370.88;;;6.44;54.19
77526;BME280;66627;29.424;-98.496;2024-01-07T09:52:54;99369.92;;;6.99;53.22
77526;BME280;66627;29.424;-98.496;2024-01-07T09:55:22;99372.23;;;7.30;52.67
77526;BME280;66627;29.424;-98.496;2024-01-07T09:57:45;99373.37;;;7.61;52.02
77526;BME280;66627;29.424;-98.496;2024-01-07T10:00:08;99375.08;;;6.37;55.22
77526;BME280;66627;29.424;-98.496;2024-01-07T10:02:32;99370.39;;;5.61;56.31
77526;BME280;66627;29.424;-98.496;2024-01-07T10:04:58;99372.60;;;6.50;55.57
77526;BME280;66627;29.424;-98.496;2024-01-07T10:07:22;99371.41;;;5.85;57.36
77526;BME280;66627;29.424;-98.496;2024-01-07T10:09:50;99363.50;;;6.41;55.69
77526;BME280;66627;29.424;-98.496;2024-01-07T10:12:14;99360.99;;;6.06;55.99
77526;BME280;66627;29.424;-98.496;2024-01-07T10:14:38;99359.19;;;5.55;56.78
77526;BME280;66627;29.424;-98.496;2024-01-07T10:17:15;99359.43;;;5.73;57.40
77526;BME280;66627;29.424;-98.496;2024-01-07T10:19:29;99354.74;;;6.40;56.23
77526;BME280;66627;29.424;-98.496;2024-01-07T10:22:00;99349.57;;;6.17;55.31
77526;BME280;66627;29.424;-98.496;2024-01-07T10:24:20;99341.98;;;5.92;55.32
77526;BME280;66627;29.424;-98.496;2024-01-07T10:26:44;99337.87;;;6.22;55.46
77526;BME280;66627;29.424;-98.496;2024-01-07T10:29:10;99335.21;;;6.65;54.49
77526;BME280;66627;29.424;-98.496;2024-01-07T10:31:37;99332.30;;;6.65;54.43
77526;BME280;66627;29.424;-98.496;2024-01-07T10:34:01;99326.65;;;7.70;51.18
77526;BME280;66627;29.424;-98.496;2024-01-07T10:36:28;99328.83;;;6.96;53.48
77526;BME280;66627;29.424;-98.496;2024-01-07T10:38:52;99328.50;;;7.72;52.74
77526;BME280;66627;29.424;-98.496;2024-01-07T10:41:20;99327.19;;;6.90;53.05
77526;BME280;66627;29.424;-98.496;2024-01-07T10:43:43;99331.81;;;6.31;55.14
77526;BME280;66627;29.424;-98.496;2024-01-07T10:46:08;99326.87;;;6.44;54.98
77526;BME280;66627;29.424;-98.496;2024-01-07T10:48:37;99320.74;;;7.63;52.38
77526;BME280;66627;29.424;-98.496;2024-01-07T10:50:59;99322.43;;;7.46;51.41
77526;BME280;66627;29.424;-98.496;2024-01-07T10:53:28;99325.97;;;6.95;52.82
77526;BME280;66627;29.424;-98.496;2024-01-07T10:55:57;99324.09;;;6.98;52.92
77526;BME280;66627;29.424;-98.496;2024-01-07T10:58:16;99328.12;;;7.16;52.16
77526;BME280;66627;29.424;-98.496;2024-01-07T11:00:41;99326.08;;;6.59;53.28
77526;BME280;66627;29.424;-98.496;2024-01-07T11:03:11;99328.87;;;6.67;53.77
77526;BME280;66627;29.424;-98.496;2024-01-07T11:05:37;99331.78;;;6.99;52.67
77526;BME280;66627;29.424;-98.496;2024-01-07T11:08:03;99329.81;;;7.02;52.02
77526;BME280;66627;29.424;-98.496;2024-01-07T11:10:27;99331.15;;;6.97;53.93
77526;BME280;66627;29.424;-98.496;2024-01-07T11:12:53;99339.39;;;5.94;54.58
77526;BME280;66627;29.424;-98.496;2024-01-07T11:15:12;99345.89;;;6.17;54.51
77526;BME280;66627;29.424;-98.496;2024-01-07T11:17:42;99345.16;;;5.72;54.93
77526;BME280;66627;29.424;-98.496;2024-01-07T11:20:04;99348.97;;;5.24;56.43
77526;BME280;66627;29.424;-98.496;2024-01-07T11:22:28;99347.59;;;5.98;55.37
77526;BME280;66627;29.424;-98.496;2024-01-07T11:24:53;99352.14;;;6.44;55.04
77526;BME280;66627;29.424;-98.496;2024-01-07T11:27:22;99356.16;;;6.76;54.35
77526;BME280;66627;29.424;-98.496;2024-01-07T11:32:14;99366.73;;;7.93;51.57
77526;BME280;66627;29.424;-98.496;2024-01-07T11:34:41;99370.58;;;7.48;51.90
77526;BME280;66627;29.424;-98.496;2024-01-07T11:37:00;99379.03;;;7.72;51.56
77526;BME280;66627;29.424;-98.496;2024-01-07T11:39:26;99385.46;;;8.10;50.88
77526;BME280;66627;29.424;-98.496;2024-01-07T11:41:52;99390.50;;;7.98;50.63
77526;BME280;66627;29.424;-98.496;2024-01-07T11:44:17;99393.50;;;7.48;51.05
77526;BME280;66627;29.424;-98.496;2024-01-07T11:46:42;99395.79;;;6.27;52.16
77526;BME280;66627;29.424;-98.496;2024-01-07T11:49:09;99392.42;;;7.46;50.96
77526;BME280;66627;29.424;-98.496;2024-01-07T11:51:34;99393.44;;;7.66;50.49
77526;BME280;66627;29.424;-98.496;2024-01-07T11:54:00;99394.50;;;7.41;50.50
77526;BME280;66627;29.424;-98.496;2024-01-07T11:56:25;99401.05;;;7.12;52.69
77526;BME280;66627;29.424;-98.496;2024-01-07T11:58:51;99407.51;;;6.89;53.27
77526;BME280;66627;29.424;-98.496;2024-01-07T12:01:16;99408.87;;;6.85;52.99
77526;BME280;66627;29.424;-98.496;2024-01-07T12:03:40;99412.03;;;6.88;52.52
77526;BME280;66627;29.424;-98.496;2024-01-07T12:06:07;99414.14;;;6.73;52.35
77526;BME280;66627;29.424;-98.496;2024-01-07T12:08:32;99417.25;;;7.08;52.18
77526;BME280;66627;29.424;-98.496;2024-01-07T12:10:56;99422.76;;;7.24;52.80
77526;BME280;66627;29.424;-98.496;2024-01-07T12:13:23;99427.98;;;7.06;52.93
77526;BME280;66627;29.424;-98.496;2024-01-07T12:15:49;99429.96;;;6.97;51.94
77526;BME280;66627;29.424;-98.496;2024-01-07T12:18:14;99437.26;;;7.14;51.57
77526;BME280;66627;29.424;-98.496;2024-01-07T12:20:39;99440.75;;;7.84;50.57
77526;BME280;66627;29.424;-98.496;2024-01-07T12:23:07;99442.45;;;7.86;50.61
77526;BME280;66627;29.424;-98.496;2024-01-07T12:25:30;99437.57;;;6.30;53.02
77526;BME280;66627;29.424;-98.496;2024-01-07T12:27:58;99441.10;;;7.58;50.78
77526;BME280;66627;29.424;-98.496;2024-01-07T12:30:23;99443.75;;;7.31;51.69
77526;BME280;66627;29.424;-98.496;2024-01-07T12:32:46;99441.22;;;7.33;50.98
77526;BME280;66627;29.424;-98.496;2024-01-07T12:35:12;99438.62;;;7.34;52.22
77526;BME280;66627;29.424;-98.496;2024-01-07T12:37:38;99438.50;;;6.76;52.88